Time;durP1;ratioP1;P1;durP2;ratioP2;P2;SDS_P1;SDS_P2;PMS_P1;PMS_P2;Temp;Humidity;BMP_temperature;BMP_pressure;BME280_temperature;BME280_humidity;BME280_pressure;Samples;Min_cycle;Max_cycle;Signal;HPM_P1;HPM_P2
2021/07/09 00:03:31;;;;;;;2.83;2.73;;;21.50;46.70;;;;;;4978602;28;20425;-82
2021/07/09 00:07:04;;;;;;;2.80;2.70;;;21.50;46.70;;;;;;4939067;29;20475;-82
2021/07/09 00:14:15;;;;;;;3.43;3.23;;;21.50;46.70;;;;;;4973122;28;20463;-83
2021/07/09 00:24:10;;;;;;;3.13;2.93;;;21.50;46.60;;;;;;5018640;28;20422;-82
2021/07/09 00:36:46;;;;;;;3.00;2.83;;;21.50;46.60;;;;;;5033483;28;20432;-83
2021/07/09 00:40:03;;;;;;;2.70;2.60;;;21.50;46.60;;;;;;5079251;28;20420;-83
2021/07/09 00:43:27;;;;;;;2.90;2.70;;;21.50;46.60;;;;;;5077755;28;20410;-83
2021/07/09 00:46:34;;;;;;;3.30;3.10;;;21.50;46.50;;;;;;5074590;28;20417;-83
2021/07/09 00:56:44;;;;;;;3.00;2.90;;;21.40;46.40;;;;;;5014723;28;20506;-82
2021/07/09 01:03:07;;;;;;;2.80;2.60;;;21.40;46.40;;;;;;4995552;28;20432;-82
2021/07/09 01:09:54;;;;;;;2.70;2.60;;;21.50;46.50;;;;;;4957225;29;20422;-83
2021/07/09 01:13:11;;;;;;;2.80;2.70;;;21.50;46.50;;;;;;4940239;29;20418;-82
2021/07/09 01:16:44;;;;;;;3.27;3.13;;;21.50;46.40;;;;;;4955588;29;20408;-82
2021/07/09 01:19:45;;;;;;;2.80;2.70;;;21.40;46.40;;;;;;4886470;29;20484;-83
2021/07/09 01:26:29;;;;;;;2.80;2.70;;;21.40;46.30;;;;;;4898810;29;20445;-83
2021/07/09 01:30:08;;;;;;;2.80;2.70;;;21.40;46.30;;;;;;4895372;29;20549;-83
2021/07/09 01:33:50;;;;;;;3.10;2.90;;;21.50;46.40;;;;;;4865591;29;20433;-83
2021/07/09 01:37:19;;;;;;;2.20;2.10;;;21.40;46.30;;;;;;4899772;29;20448;-83
2021/07/09 02:01:41;;;;;;;2.87;2.77;;;21.40;46.20;;;;;;4897711;29;20424;-82
2021/07/09 02:04:27;;;;;;;2.60;2.50;;;21.40;46.20;;;;;;4919848;29;20458;-81
2021/07/09 02:11:12;;;;;;;3.00;2.90;;;21.40;46.20;;;;;;4954745;29;20430;-82
2021/07/09 02:17:54;;;;;;;2.80;2.70;;;21.40;46.20;;;;;;5012227;28;20423;-82
2021/07/09 02:21:03;;;;;;;2.60;2.50;;;21.40;46.20;;;;;;4998856;28;20581;-81
2021/07/09 02:31:52;;;;;;;2.57;2.47;;;21.40;46.10;;;;;;4972932;28;20416;-82
2021/07/09 02:35:16;;;;;;;2.80;2.60;;;21.40;46.10;;;;;;4915107;29;20445;-81
2021/07/09 02:38:52;;;;;;;2.80;2.70;;;21.40;46.10;;;;;;4859244;29;20514;-81
2021/07/09 02:59:10;;;;;;;2.60;2.50;;;21.40;46.10;;;;;;4876834;29;20462;-81
2021/07/09 03:03:15;;;;;;;3.40;2.43;;;21.40;46.10;;;;;;4919231;29;20470;-81
2021/07/09 03:10:10;;;;;;;2.97;2.87;;;21.40;46.10;;;;;;5001060;28;20414;-81
2021/07/09 03:17:14;;;;;;;2.77;2.67;;;21.40;46.00;;;;;;4915205;29;20950;-81
2021/07/09 03:20:43;;;;;;;2.83;2.50;;;21.40;46.10;;;;;;4921936;29;20577;-81
2021/07/09 03:27:30;;;;;;;2.87;2.77;;;21.40;46.10;;;;;;4878161;29;20556;-81
2021/07/09 03:33:57;;;;;;;2.90;2.80;;;21.40;46.00;;;;;;4911376;29;20407;-81
2021/07/09 03:37:12;;;;;;;2.93;2.83;;;21.40;46.00;;;;;;4912602;28;20443;-82
2021/07/09 03:40:09;;;;;;;2.90;2.80;;;21.40;46.00;;;;;;4997052;28;20413;-82
2021/07/09 03:43:19;;;;;;;2.70;2.60;;;21.40;46.00;;;;;;4980255;28;20424;-81
2021/07/09 03:46:32;;;;;;;2.67;2.57;;;21.40;45.90;;;;;;5020175;28;20478;-82
2021/07/09 03:49:42;;;;;;;3.07;2.97;;;21.40;45.90;;;;;;5044973;28;20434;-81
2021/07/09 03:52:32;;;;;;;2.93;2.83;;;21.40;46.00;;;;;;5039535;28;20426;-82
2021/07/09 03:55:13;;;;;;;2.80;2.70;;;21.40;46.00;;;;;;5065630;28;20436;-82
2021/07/09 03:58:00;;;;;;;2.60;2.50;;;21.40;45.90;;;;;;5059704;28;20505;-82
2021/07/09 04:03:45;;;;;;;2.57;2.47;;;21.40;45.90;;;;;;5044386;28;20561;-82
2021/07/09 04:07:12;;;;;;;2.60;2.50;;;21.40;45.90;;;;;;5051554;28;20474;-81
2021/07/09 04:10:54;;;;;;;2.53;2.43;;;21.40;45.90;;;;;;5048665;28;20437;-81
2021/07/09 04:24:05;;;;;;;3.33;3.23;;;21.40;45.80;;;;;;5054544;28;20417;-81
2021/07/09 04:26:53;;;;;;;3.20;3.00;;;21.40;45.80;;;;;;5017361;28;20478;-82
2021/07/09 04:29:43;;;;;;;3.10;3.00;;;21.40;45.80;;;;;;5051718;28;20870;-81
2021/07/09 04:33:03;;;;;;;2.83;2.73;;;21.40;45.80;;;;;;5050620;28;20430;-81
2021/07/09 05:07:44;;;;;;;4.10;3.70;;;21.40;46.10;;;;;;4981709;28;20471;-82
2021/07/09 05:14:27;;;;;;;3.90;3.50;;;21.40;46.10;;;;;;5006398;28;20448;-80
2021/07/09 05:21:13;;;;;;;3.57;3.37;;;21.40;46.00;;;;;;4917786;29;20408;-83
2021/07/09 05:24:36;;;;;;;3.63;3.50;;;21.40;46.00;;;;;;4917870;29;20490;-81
2021/07/09 05:31:07;;;;;;;3.10;3.00;;;21.40;46.00;;;;;;4953503;28;20466;-82
2021/07/09 05:34:16;;;;;;;3.47;3.27;;;21.40;45.90;;;;;;4941463;29;20459;-82
2021/07/09 05:37:33;;;;;;;3.73;3.43;;;21.40;46.00;;;;;;4940844;29;20439;-81
2021/07/09 05:51:09;;;;;;;3.10;2.90;;;21.40;46.00;;;;;;4880051;29;20409;-84
2021/07/09 06:14:29;;;;;;;11.57;5.70;;;21.50;47.20;;;;;;4839953;29;20468;-80
2021/07/09 06:16:55;;;;;;;10.53;5.47;;;21.50;47.20;;;;;;4868424;29;20250;-80
2021/07/09 06:19:33;;;;;;;11.77;5.17;;;21.50;47.10;;;;;;4937667;29;20218;-79
2021/07/09 06:21:59;;;;;;;9.17;5.63;;;21.50;46.90;;;;;;4956496;29;20529;-80
2021/07/09 06:24:31;;;;;;;10.00;5.03;;;21.50;46.80;;;;;;5002498;28;20490;-79
2021/07/09 06:26:57;;;;;;;6.00;4.97;;;21.50;47.00;;;;;;5012149;28;20205;-80
2021/07/09 06:29:22;;;;;;;9.50;5.10;;;21.50;47.30;;;;;;5012351;28;20420;-79
2021/07/09 06:31:48;;;;;;;9.53;5.03;;;21.50;47.00;;;;;;5012858;28;20260;-80
2021/07/09 06:34:14;;;;;;;8.17;4.00;;;21.50;47.10;;;;;;5012097;28;20184;-80
2021/07/09 06:36:39;;;;;;;8.07;5.10;;;21.50;47.10;;;;;;5013607;28;20436;-81
2021/07/09 06:39:05;;;;;;;8.87;4.30;;;21.50;47.00;;;;;;5020862;28;20182;-81
2021/07/09 06:41:30;;;;;;;4.43;4.03;;;21.50;47.00;;;;;;5020055;28;20251;-80
2021/07/09 06:43:59;;;;;;;5.97;4.10;;;21.50;46.90;;;;;;5019691;28;20239;-79
2021/07/09 06:46:26;;;;;;;9.13;4.80;;;21.50;46.90;;;;;;5019486;28;20209;-81
2021/07/09 06:48:51;;;;;;;4.60;4.20;;;21.50;46.80;;;;;;5021947;28;20424;-81
2021/07/09 06:51:20;;;;;;;7.53;4.47;;;21.50;46.80;;;;;;5023047;28;20419;-82
2021/07/09 06:53:55;;;;;;;11.83;5.53;;;21.50;46.80;;;;;;5021083;28;20189;-81
2021/07/09 06:56:24;;;;;;;5.73;5.23;;;21.40;46.90;;;;;;5022645;28;20451;-80
2021/07/09 06:58:54;;;;;;;5.30;4.53;;;21.40;46.80;;;;;;5024966;28;20427;-80
2021/07/09 07:01:26;;;;;;;7.27;4.93;;;21.50;46.80;;;;;;5023127;28;20459;-81
2021/07/09 07:03:59;;;;;;;6.60;4.33;;;21.50;46.90;;;;;;5021895;28;20501;-81
2021/07/09 07:06:29;;;;;;;4.87;4.17;;;21.50;46.90;;;;;;5020251;28;20498;-81
2021/07/09 07:08:58;;;;;;;6.13;4.67;;;21.50;47.30;;;;;;5033853;28;20424;-81
2021/07/09 07:11:32;;;;;;;6.87;4.13;;;21.40;46.80;;;;;;5019136;28;20428;-82
2021/07/09 07:14:24;;;;;;;9.97;4.50;;;21.40;46.80;;;;;;5037494;28;20412;-81
2021/07/09 07:17:00;;;;;;;5.60;4.10;;;21.40;46.80;;;;;;5016908;28;20445;-81
2021/07/09 07:19:32;;;;;;;5.20;4.40;;;21.40;46.70;;;;;;5034204;28;20510;-82
2021/07/09 07:22:02;;;;;;;8.30;4.37;;;21.40;46.70;;;;;;5002821;28;20531;-82
2021/07/09 07:24:50;;;;;;;6.17;4.77;;;21.40;46.60;;;;;;5019953;28;20466;-81
2021/07/09 07:27:30;;;;;;;4.40;4.00;;;21.50;46.70;;;;;;5021440;28;20471;-80
2021/07/09 07:29:59;;;;;;;4.50;4.10;;;21.40;46.60;;;;;;5034705;28;20426;-80
2021/07/09 07:32:26;;;;;;;5.80;4.77;;;21.40;46.60;;;;;;5017860;28;20253;-82
2021/07/09 07:34:54;;;;;;;4.63;4.10;;;21.40;46.60;;;;;;5033439;28;20501;-81
2021/07/09 07:37:19;;;;;;;5.80;4.27;;;21.40;46.60;;;;;;5033695;28;20548;-81
2021/07/09 07:39:45;;;;;;;4.00;3.80;;;21.40;46.50;;;;;;5033694;28;20463;-81
2021/07/09 07:42:10;;;;;;;4.90;4.50;;;21.50;46.50;;;;;;5018814;28;20192;-81
2021/07/09 07:44:36;;;;;;;4.47;3.60;;;21.50;46.40;;;;;;5033145;28;20182;-80
2021/07/09 07:47:01;;;;;;;4.53;3.70;;;21.50;46.40;;;;;;5017902;28;20220;-80
2021/07/09 07:49:27;;;;;;;4.87;4.20;;;21.50;46.50;;;;;;5034575;28;20304;-79
2021/07/09 07:51:53;;;;;;;4.23;3.50;;;21.50;46.40;;;;;;5018915;28;20161;-79
2021/07/09 07:54:19;;;;;;;4.73;4.30;;;21.50;46.40;;;;;;5033634;28;20177;-79
2021/07/09 07:56:45;;;;;;;4.30;3.90;;;21.50;46.40;;;;;;5021691;28;20910;-79
2021/07/09 07:59:11;;;;;;;4.33;3.93;;;21.50;46.40;;;;;;5037744;28;20424;-79
2021/07/09 08:01:36;;;;;;;4.10;3.90;;;21.50;46.40;;;;;;5037772;28;20796;-82
2021/07/09 08:04:02;;;;;;;3.93;3.63;;;21.50;46.40;;;;;;5037519;28;20184;-80
2021/07/09 08:06:28;;;;;;;3.80;3.30;;;21.50;46.50;;;;;;5019932;28;20209;-80
2021/07/09 08:08:53;;;;;;;3.23;3.03;;;21.50;46.40;;;;;;5021091;28;20176;-80
2021/07/09 08:11:19;;;;;;;5.37;3.37;;;21.50;46.40;;;;;;5021949;28;20185;-80
2021/07/09 08:13:45;;;;;;;3.70;3.50;;;21.50;46.50;;;;;;5034886;28;20173;-80
2021/07/09 08:16:11;;;;;;;3.53;3.33;;;21.40;46.30;;;;;;5016961;28;20412;-80
2021/07/09 08:18:37;;;;;;;4.50;3.50;;;21.50;46.40;;;;;;5032170;28;20165;-80
2021/07/09 08:21:03;;;;;;;3.63;2.90;;;21.40;46.30;;;;;;5019133;28;20404;-80
2021/07/09 08:23:29;;;;;;;4.23;3.97;;;21.50;46.40;;;;;;5034848;28;20565;-80
2021/07/09 08:25:55;;;;;;;3.70;3.50;;;21.40;46.30;;;;;;5018426;28;20409;-81
2021/07/09 08:28:22;;;;;;;4.33;4.03;;;21.50;46.40;;;;;;5038098;28;21057;-81
2021/07/09 08:30:50;;;;;;;4.73;4.33;;;21.50;46.40;;;;;;5037782;28;20416;-81
2021/07/09 08:33:16;;;;;;;4.10;3.80;;;21.50;46.40;;;;;;5023598;28;20420;-81
2021/07/09 08:35:47;;;;;;;4.33;3.93;;;21.50;47.10;;;;;;5038598;28;20507;-81
2021/07/09 08:38:13;;;;;;;3.90;3.60;;;21.50;46.50;;;;;;5036867;28;20472;-81
2021/07/09 08:40:39;;;;;;;3.87;3.67;;;21.50;46.50;;;;;;5035828;28;20420;-81
2021/07/09 08:43:10;;;;;;;4.17;3.87;;;21.40;46.40;;;;;;5035163;28;20178;-80
2021/07/09 08:46:04;;;;;;;4.20;3.90;;;21.50;46.50;;;;;;5036981;28;20423;-81
2021/07/09 08:48:41;;;;;;;4.03;3.80;;;21.50;46.50;;;;;;5037109;28;20801;-82
2021/07/09 08:51:16;;;;;;;4.10;3.80;;;21.50;46.50;;;;;;5024011;28;20408;-81
2021/07/09 08:53:42;;;;;;;4.20;3.90;;;21.40;46.50;;;;;;5038884;28;20421;-81
2021/07/09 08:56:08;;;;;;;5.83;4.17;;;21.50;46.60;;;;;;5005170;28;20435;-80
2021/07/09 08:58:36;;;;;;;4.47;4.17;;;21.50;46.70;;;;;;5032960;28;20804;-81
2021/07/09 09:01:05;;;;;;;5.03;4.73;;;21.50;46.70;;;;;;5032006;28;20181;-81
2021/07/09 09:03:33;;;;;;;4.77;4.47;;;21.50;46.70;;;;;;5031556;28;20786;-81
2021/07/09 09:06:01;;;;;;;5.83;4.40;;;21.50;46.80;;;;;;5030158;28;20452;-81
2021/07/09 09:08:29;;;;;;;4.90;4.50;;;21.50;46.80;;;;;;5030336;28;20861;-80
2021/07/09 09:10:59;;;;;;;4.17;3.87;;;21.50;46.80;;;;;;5013782;28;20783;-81
2021/07/09 09:13:32;;;;;;;4.80;4.30;;;21.50;46.70;;;;;;5022541;28;20400;-80
2021/07/09 09:16:15;;;;;;;5.00;4.60;;;21.50;46.80;;;;;;5041410;28;20415;-81
2021/07/09 09:18:44;;;;;;;4.60;4.27;;;21.50;46.80;;;;;;5027100;28;20411;-81
2021/07/09 09:21:13;;;;;;;4.47;4.17;;;21.50;46.80;;;;;;5039496;28;20413;-81
2021/07/09 09:23:51;;;;;;;6.27;4.80;;;21.50;46.80;;;;;;5038869;28;20451;-81
2021/07/09 09:26:55;;;;;;;4.10;3.90;;;21.50;46.80;;;;;;5022361;28;20444;-81
2021/07/09 09:29:35;;;;;;;4.77;4.50;;;21.50;46.80;;;;;;5024234;28;20420;-81
2021/07/09 09:32:22;;;;;;;5.00;4.40;;;21.50;46.80;;;;;;5022746;28;20459;-81
2021/07/09 09:35:12;;;;;;;5.10;4.80;;;21.50;46.80;;;;;;5017383;28;20451;-79
2021/07/09 09:37:54;;;;;;;6.20;5.70;;;21.50;46.60;;;;;;5018950;28;20875;-80
2021/07/09 09:40:28;;;;;;;5.03;4.53;;;21.50;46.70;;;;;;5000470;28;20425;-81
2021/07/09 09:42:56;;;;;;;4.80;4.40;;;21.50;46.70;;;;;;5035979;28;20426;-81
2021/07/09 09:45:30;;;;;;;5.40;4.80;;;21.50;46.70;;;;;;5017481;28;20425;-81
2021/07/09 09:48:06;;;;;;;4.63;4.33;;;21.50;46.70;;;;;;4999384;28;20637;-81
2021/07/09 09:50:46;;;;;;;4.70;4.30;;;21.50;46.70;;;;;;5017037;28;20983;-81
2021/07/09 09:53:13;;;;;;;6.23;5.63;;;21.50;46.70;;;;;;5032349;28;20424;-81
2021/07/09 09:55:41;;;;;;;4.97;4.67;;;21.40;46.50;;;;;;5033348;28;20754;-81
2021/07/09 09:58:10;;;;;;;4.80;4.50;;;21.50;46.60;;;;;;5033248;28;20444;-80
2021/07/09 10:00:37;;;;;;;5.10;4.70;;;21.40;46.50;;;;;;5015882;28;20424;-80
2021/07/09 10:03:43;;;;;;;4.50;4.20;;;21.40;46.50;;;;;;5032540;28;20424;-81
2021/07/09 10:06:30;;;;;;;5.33;4.93;;;21.40;46.40;;;;;;5007858;28;20472;-81
2021/07/09 10:08:58;;;;;;;5.60;5.20;;;21.40;46.40;;;;;;5017531;28;20404;-81
2021/07/09 10:11:27;;;;;;;4.57;4.37;;;21.40;46.30;;;;;;5017473;28;20416;-81
2021/07/09 10:13:58;;;;;;;4.37;4.17;;;21.40;46.30;;;;;;5031657;28;20424;-81
2021/07/09 10:16:24;;;;;;;5.43;5.03;;;21.40;46.30;;;;;;5030918;28;20447;-81
2021/07/09 10:18:55;;;;;;;4.27;3.97;;;21.50;46.40;;;;;;5036363;28;20424;-81
2021/07/09 10:21:53;;;;;;;4.73;4.50;;;21.40;46.20;;;;;;5009326;28;20485;-80
2021/07/09 10:24:32;;;;;;;4.83;4.53;;;21.40;46.20;;;;;;5017595;28;20762;-81
2021/07/09 10:26:59;;;;;;;4.43;4.23;;;21.50;46.20;;;;;;5033822;28;20472;-81
2021/07/09 10:29:47;;;;;;;5.30;4.60;;;21.40;46.10;;;;;;5031763;28;20447;-81
2021/07/09 10:32:30;;;;;;;4.83;4.53;;;21.40;46.10;;;;;;5013384;28;20424;-81
2021/07/09 10:34:56;;;;;;;4.27;4.03;;;21.40;46.10;;;;;;5013996;28;20420;-81
2021/07/09 10:37:28;;;;;;;4.40;4.20;;;21.40;46.10;;;;;;5014559;28;20432;-81
2021/07/09 10:40:12;;;;;;;4.50;4.20;;;21.40;46.10;;;;;;5014707;28;20173;-81
2021/07/09 10:42:44;;;;;;;4.07;3.83;;;21.40;46.00;;;;;;5014285;28;20475;-81
2021/07/09 10:45:24;;;;;;;4.67;4.47;;;21.50;46.10;;;;;;5014139;28;20506;-81
2021/07/09 10:48:15;;;;;;;5.50;4.50;;;21.50;46.00;;;;;;5014419;28;20977;-82
2021/07/09 10:50:49;;;;;;;5.17;4.87;;;21.40;46.00;;;;;;5016755;28;20416;-81
2021/07/09 10:53:14;;;;;;;4.37;4.07;;;21.40;45.90;;;;;;5017179;28;20786;-81
2021/07/09 10:55:45;;;;;;;4.70;4.50;;;21.50;46.00;;;;;;5015823;28;20415;-81
2021/07/09 10:58:20;;;;;;;4.73;4.43;;;21.50;46.00;;;;;;5014493;28;20193;-81
2021/07/09 11:00:50;;;;;;;4.37;4.17;;;21.50;46.00;;;;;;5019659;28;20549;-82
2021/07/09 11:03:35;;;;;;;4.73;4.33;;;21.40;45.90;;;;;;5020994;28;20424;-82
2021/07/09 11:06:10;;;;;;;4.77;4.40;;;21.40;45.80;;;;;;5022011;28;20420;-81
2021/07/09 11:08:50;;;;;;;4.33;4.13;;;21.40;45.90;;;;;;5022213;28;20420;-81
2021/07/09 11:11:18;;;;;;;4.70;4.50;;;21.40;45.80;;;;;;5020249;28;20404;-81
2021/07/09 11:13:49;;;;;;;4.77;4.33;;;21.40;45.90;;;;;;5016259;28;20412;-81
2021/07/09 11:16:24;;;;;;;4.93;4.63;;;21.40;45.80;;;;;;5016582;28;20405;-81
2021/07/09 11:19:03;;;;;;;4.37;4.17;;;21.40;45.80;;;;;;5016802;28;20487;-81
2021/07/09 11:21:32;;;;;;;5.30;4.90;;;21.50;45.90;;;;;;5016810;28;20420;-81
2021/07/09 11:24:07;;;;;;;4.70;4.40;;;21.40;45.70;;;;;;5016056;28;20812;-82
2021/07/09 11:26:35;;;;;;;4.17;3.97;;;21.50;45.80;;;;;;5019111;28;20463;-81
2021/07/09 11:29:16;;;;;;;4.43;4.13;;;21.40;45.70;;;;;;5018712;28;20780;-81
2021/07/09 11:31:42;;;;;;;4.53;4.23;;;21.40;45.70;;;;;;5020352;28;20410;-81
2021/07/09 11:34:12;;;;;;;4.10;3.80;;;21.40;45.70;;;;;;5020514;28;20468;-82
2021/07/09 11:36:56;;;;;;;4.40;4.20;;;21.40;45.70;;;;;;5022803;28;20598;-81
2021/07/09 11:39:24;;;;;;;4.23;4.03;;;21.40;45.70;;;;;;5020948;28;20427;-81
2021/07/09 11:42:05;;;;;;;4.27;4.07;;;21.40;45.70;;;;;;5023384;28;20418;-81
2021/07/09 11:44:36;;;;;;;4.87;4.47;;;21.50;45.70;;;;;;5022743;28;20416;-81
2021/07/09 11:47:08;;;;;;;4.77;3.93;;;21.40;45.70;;;;;;5022895;28;20468;-82
2021/07/09 11:49:39;;;;;;;5.10;4.80;;;21.50;45.70;;;;;;5022962;28;20447;-81
2021/07/09 11:52:10;;;;;;;4.50;4.30;;;21.40;45.60;;;;;;5024524;28;20411;-81
2021/07/09 11:54:38;;;;;;;4.70;4.50;;;21.40;45.60;;;;;;5019890;28;20895;-81
2021/07/09 11:57:08;;;;;;;4.20;4.00;;;21.40;45.60;;;;;;5018358;28;20463;-82
2021/07/09 11:59:34;;;;;;;4.80;4.50;;;21.40;45.60;;;;;;5033741;28;20546;-81
2021/07/09 12:02:04;;;;;;;4.03;3.83;;;21.40;45.60;;;;;;5035769;28;20420;-81
2021/07/09 12:04:40;;;;;;;4.30;4.10;;;21.40;45.60;;;;;;5021156;28;20409;-81
2021/07/09 12:07:16;;;;;;;4.40;4.20;;;21.40;45.60;;;;;;5019532;28;20459;-81
2021/07/09 12:09:46;;;;;;;4.60;4.30;;;21.40;45.60;;;;;;5016702;28;20426;-81
2021/07/09 12:12:13;;;;;;;5.10;4.80;;;21.40;45.60;;;;;;5017721;28;20414;-81
2021/07/09 12:14:54;;;;;;;4.50;4.30;;;21.40;45.60;;;;;;5021639;28;20408;-81
2021/07/09 12:17:20;;;;;;;4.67;4.47;;;21.40;45.50;;;;;;5017559;28;20436;-81
2021/07/09 12:19:58;;;;;;;4.73;4.53;;;21.40;45.60;;;;;;5017446;28;20432;-81
2021/07/09 12:22:33;;;;;;;4.80;4.60;;;21.40;45.50;;;;;;5018933;28;20495;-81
2021/07/09 12:25:04;;;;;;;4.87;4.60;;;21.40;45.50;;;;;;5034020;28;20436;-81
2021/07/09 12:27:31;;;;;;;4.50;4.30;;;21.40;45.60;;;;;;5015691;28;20471;-81
2021/07/09 12:29:58;;;;;;;5.00;4.70;;;21.40;45.50;;;;;;5016007;28;20419;-81
2021/07/09 12:32:24;;;;;;;4.00;3.80;;;21.40;45.50;;;;;;5016004;28;20491;-81
2021/07/09 12:35:05;;;;;;;4.93;4.63;;;21.40;45.50;;;;;;5020196;28;20862;-81
2021/07/09 12:37:31;;;;;;;5.17;4.83;;;21.40;45.50;;;;;;5014458;28;20205;-80
2021/07/09 12:40:17;;;;;;;4.90;4.60;;;21.40;46.20;;;;;;5014805;28;20478;-81
2021/07/09 12:42:45;;;;;;;4.33;4.03;;;21.40;45.40;;;;;;5015893;28;20428;-81
2021/07/09 12:45:11;;;;;;;6.00;3.77;;;21.40;45.50;;;;;;5016962;28;20416;-81
2021/07/09 12:47:49;;;;;;;4.70;4.40;;;21.40;45.40;;;;;;5020070;28;20464;-81
2021/07/09 12:50:18;;;;;;;4.20;4.00;;;21.40;45.40;;;;;;5020795;28;20411;-81
2021/07/09 12:52:43;;;;;;;4.50;4.30;;;21.40;45.40;;;;;;5020663;28;20768;-82
2021/07/09 12:55:34;;;;;;;4.53;4.23;;;21.40;45.40;;;;;;5017297;28;20409;-81
2021/07/09 12:58:30;;;;;;;4.23;4.03;;;21.40;45.40;;;;;;5019516;28;20196;-81
2021/07/09 13:01:06;;;;;;;4.60;4.30;;;21.40;45.40;;;;;;5016504;28;20903;-80
2021/07/09 13:03:33;;;;;;;7.20;6.70;;;21.40;45.40;;;;;;5021287;28;20827;-80
2021/07/09 13:06:12;;;;;;;7.40;6.70;;;21.50;45.90;;;;;;5021327;28;20408;-80
2021/07/09 13:08:39;;;;;;;8.60;7.80;;;21.50;46.00;;;;;;5022738;28;20420;-81
2021/07/09 13:11:21;;;;;;;8.60;7.73;;;21.50;46.20;;;;;;5024653;28;20515;-80
2021/07/09 13:13:52;;;;;;;8.60;7.90;;;21.60;46.20;;;;;;5024809;28;20412;-80
2021/07/09 13:16:20;;;;;;;13.07;7.73;;;21.60;46.20;;;;;;5024913;28;20421;-80
2021/07/09 13:18:59;;;;;;;9.00;8.10;;;21.60;46.10;;;;;;5025097;28;20400;-81
2021/07/09 13:21:27;;;;;;;9.20;8.40;;;21.60;46.00;;;;;;5024323;28;20595;-81
2021/07/09 13:24:10;;;;;;;9.17;8.37;;;21.60;45.90;;;;;;5024453;28;20499;-81
2021/07/09 13:26:36;;;;;;;8.40;7.70;;;21.60;45.90;;;;;;5038438;28;20463;-80
2021/07/09 13:29:02;;;;;;;8.30;7.60;;;21.60;45.80;;;;;;5023778;28;20436;-80
2021/07/09 13:31:28;;;;;;;8.50;7.80;;;21.60;45.80;;;;;;5024537;28;20431;-80
2021/07/09 13:33:53;;;;;;;9.07;7.47;;;21.70;45.80;;;;;;5022121;28;20405;-81
2021/07/09 13:36:31;;;;;;;7.33;6.83;;;21.70;45.80;;;;;;5024627;28;20205;-80
2021/07/09 13:38:57;;;;;;;8.70;7.90;;;21.70;45.80;;;;;;5039826;28;20200;-80
2021/07/09 13:41:23;;;;;;;8.13;7.33;;;21.70;46.50;;;;;;5024288;28;20821;-80
2021/07/09 13:43:49;;;;;;;7.80;7.20;;;21.60;45.70;;;;;;5024394;28;20413;-80
2021/07/09 13:46:15;;;;;;;8.73;8.10;;;21.70;45.80;;;;;;5024243;28;20166;-80
2021/07/09 13:48:41;;;;;;;8.23;7.50;;;21.70;45.70;;;;;;5023199;28;20790;-81
2021/07/09 13:51:07;;;;;;;7.73;7.13;;;21.70;45.70;;;;;;5039115;28;20420;-80
2021/07/09 13:53:33;;;;;;;7.17;6.67;;;21.70;45.60;;;;;;5038684;28;20191;-80
2021/07/09 13:55:58;;;;;;;8.33;7.73;;;21.70;45.50;;;;;;5023331;28;20495;-80
2021/07/09 13:58:24;;;;;;;7.83;7.17;;;21.70;45.50;;;;;;5022114;28;20192;-80
2021/07/09 14:00:49;;;;;;;8.63;7.93;;;21.70;45.50;;;;;;5023025;28;20196;-80
2021/07/09 14:03:15;;;;;;;7.50;6.90;;;21.70;45.50;;;;;;5023463;28;20177;-80
2021/07/09 14:05:41;;;;;;;7.77;7.20;;;21.70;45.40;;;;;;5023849;28;20280;-80
2021/07/09 14:08:06;;;;;;;7.00;6.57;;;21.70;45.40;;;;;;5039153;28;20591;-80
2021/07/09 14:10:32;;;;;;;6.90;6.50;;;21.70;45.40;;;;;;5021634;28;20234;-81
2021/07/09 14:12:58;;;;;;;7.83;7.10;;;21.70;46.00;;;;;;5022812;28;20192;-81
2021/07/09 14:15:26;;;;;;;7.73;7.10;;;21.70;45.30;;;;;;5022649;28;20195;-80
2021/07/09 14:17:52;;;;;;;8.23;7.70;;;21.70;45.30;;;;;;5019299;28;20664;-80
2021/07/09 14:20:18;;;;;;;7.93;7.23;;;21.80;45.30;;;;;;5019771;28;20420;-80
2021/07/09 14:22:44;;;;;;;7.23;6.73;;;21.70;45.10;;;;;;5019028;28;20424;-80
2021/07/09 14:25:10;;;;;;;7.30;6.80;;;21.70;45.10;;;;;;5020912;28;20808;-80
2021/07/09 14:27:36;;;;;;;6.87;6.37;;;21.70;45.10;;;;;;5018382;28;20456;-80
2021/07/09 14:30:03;;;;;;;7.00;6.50;;;21.70;45.10;;;;;;5018461;28;20420;-80
2021/07/09 14:32:29;;;;;;;7.80;7.17;;;21.70;45.00;;;;;;5016459;28;20216;-80
2021/07/09 14:34:54;;;;;;;7.90;7.20;;;21.70;45.10;;;;;;5016456;28;20763;-85
2021/07/09 14:37:20;;;;;;;8.60;7.90;;;21.80;45.10;;;;;;5016276;28;20208;-85
2021/07/09 14:39:47;;;;;;;8.87;8.10;;;21.70;45.00;;;;;;5020081;28;20188;-80
2021/07/09 14:42:13;;;;;;;8.67;7.87;;;21.70;45.10;;;;;;5021087;28;20412;-80
2021/07/09 14:44:38;;;;;;;10.80;7.93;;;21.70;45.00;;;;;;5018907;28;20423;-80
2021/07/09 14:47:04;;;;;;;8.40;7.70;;;21.70;45.00;;;;;;5033970;28;20205;-79
2021/07/09 14:49:30;;;;;;;8.27;6.73;;;21.70;44.90;;;;;;5017396;28;20196;-80
2021/07/09 14:51:55;;;;;;;8.60;7.90;;;21.70;44.90;;;;;;5018457;28;20202;-80
2021/07/09 14:54:21;;;;;;;8.43;7.73;;;21.70;44.80;;;;;;5018080;28;20192;-80
2021/07/09 14:56:46;;;;;;;7.07;6.33;;;21.70;44.70;;;;;;5019023;28;20201;-80
2021/07/09 14:59:12;;;;;;;12.47;7.20;;;21.70;44.60;;;;;;5018063;28;20636;-79
2021/07/09 15:01:37;;;;;;;7.57;6.13;;;21.80;44.60;;;;;;5017402;28;20184;-79
2021/07/09 15:04:03;;;;;;;8.83;6.97;;;21.70;44.40;;;;;;5036612;28;20188;-80
2021/07/09 15:06:29;;;;;;;7.53;6.93;;;21.70;44.50;;;;;;5021783;28;20201;-79
2021/07/09 15:08:54;;;;;;;7.23;6.53;;;21.70;44.50;;;;;;5022580;28;20169;-79
2021/07/09 15:11:20;;;;;;;8.90;7.17;;;21.70;44.40;;;;;;5020021;28;20188;-79
2021/07/09 15:13:46;;;;;;;7.57;6.80;;;21.70;45.10;;;;;;5019780;28;20205;-78
2021/07/09 15:16:11;;;;;;;7.10;6.37;;;21.70;44.40;;;;;;5021924;28;20184;-79
2021/07/09 15:18:37;;;;;;;6.33;5.90;;;21.70;44.40;;;;;;5021628;28;20196;-79
2021/07/09 15:21:02;;;;;;;8.00;7.17;;;21.70;44.40;;;;;;5022794;28;20259;-80
2021/07/09 15:23:28;;;;;;;9.17;7.20;;;21.70;44.40;;;;;;5023247;28;20181;-79
2021/07/09 15:25:53;;;;;;;7.20;6.70;;;21.70;44.40;;;;;;5021487;28;20193;-79
2021/07/09 15:28:19;;;;;;;6.77;6.27;;;21.70;44.50;;;;;;5019453;28;20236;-79
2021/07/09 15:30:47;;;;;;;8.60;6.20;;;21.70;44.40;;;;;;5019980;28;20239;-79
2021/07/09 15:33:13;;;;;;;7.37;6.67;;;21.70;44.20;;;;;;5017680;28;20255;-79
2021/07/09 15:35:39;;;;;;;7.73;7.17;;;21.70;43.90;;;;;;5018264;28;20891;-79
2021/07/09 15:38:04;;;;;;;6.73;6.23;;;21.70;44.10;;;;;;5019614;28;20197;-79
2021/07/09 15:40:30;;;;;;;9.20;5.93;;;21.70;44.00;;;;;;5018617;28;20174;-78
2021/07/09 15:42:56;;;;;;;7.20;6.70;;;21.70;43.40;;;;;;5017914;28;20208;-78
2021/07/09 15:45:21;;;;;;;7.90;6.93;;;21.60;43.40;;;;;;5017465;28;20186;-78
2021/07/09 15:47:47;;;;;;;7.20;6.30;;;21.60;43.60;;;;;;5016813;28;20244;-79
2021/07/09 15:50:14;;;;;;;12.07;7.00;;;21.60;43.70;;;;;;5016551;28;20200;-79
2021/07/09 15:52:40;;;;;;;9.67;8.70;;;21.60;42.40;;;;;;5016559;28;20408;-78
2021/07/09 15:55:06;;;;;;;12.87;9.20;;;21.60;42.50;;;;;;5015875;28;20416;-78
2021/07/09 15:57:32;;;;;;;19.50;17.77;;;21.60;43.00;;;;;;5015445;28;20193;-78
2021/07/09 15:59:59;;;;;;;42.30;37.97;;;21.60;43.40;;;;;;5016551;28;20465;-78
2021/07/09 16:02:24;;;;;;;46.83;42.03;;;21.60;43.00;;;;;;5032585;28;20197;-79
2021/07/09 16:04:52;;;;;;;63.30;53.83;;;21.60;43.20;;;;;;5017838;28;20420;-78
2021/07/09 16:07:17;;;;;;;66.67;59.77;;;21.70;43.80;;;;;;5034350;28;20248;-78
2021/07/09 16:09:43;;;;;;;60.13;53.60;;;21.70;43.70;;;;;;5020066;28;20819;-79
2021/07/09 16:12:09;;;;;;;49.83;41.47;;;21.60;43.90;;;;;;5020474;28;20169;-79
2021/07/09 16:14:35;;;;;;;45.43;40.90;;;21.60;43.30;;;;;;5035216;28;20230;-79
2021/07/09 16:17:01;;;;;;;43.77;39.30;;;21.60;43.30;;;;;;5020734;28;20452;-79
2021/07/09 16:19:28;;;;;;;44.17;38.37;;;21.60;43.20;;;;;;5004475;28;20625;-79
2021/07/09 16:21:59;;;;;;;43.83;39.27;;;21.70;43.50;;;;;;5017235;28;20432;-79
2021/07/09 16:24:25;;;;;;;40.07;36.23;;;21.70;43.40;;;;;;5017666;28;20440;-79
2021/07/09 16:26:51;;;;;;;33.00;29.80;;;21.70;43.50;;;;;;5033915;28;20559;-79
2021/07/09 16:29:17;;;;;;;26.60;24.10;;;21.70;43.20;;;;;;5032563;28;20188;-78
2021/07/09 16:31:44;;;;;;;27.57;23.43;;;21.60;42.20;;;;;;5017549;28;20177;-79
2021/07/09 16:34:18;;;;;;;27.07;24.50;;;21.60;42.50;;;;;;5017165;28;20539;-79
2021/07/09 16:36:47;;;;;;;25.27;22.00;;;21.60;42.80;;;;;;5018768;28;20808;-79
2021/07/09 16:39:14;;;;;;;20.67;18.97;;;21.60;43.10;;;;;;5032094;28;20478;-79
2021/07/09 16:41:39;;;;;;;22.90;20.80;;;21.70;43.10;;;;;;5016787;28;20430;-79
2021/07/09 16:44:06;;;;;;;24.17;22.00;;;21.70;43.60;;;;;;5033991;28;20475;-79
2021/07/09 16:46:32;;;;;;;22.40;20.20;;;21.70;43.50;;;;;;5032644;28;20201;-80
2021/07/09 16:48:58;;;;;;;25.03;22.70;;;21.70;43.60;;;;;;5019121;28;20431;-79
2021/07/09 16:51:23;;;;;;;24.90;22.70;;;21.70;43.90;;;;;;5034637;28;20165;-78
2021/07/09 16:53:49;;;;;;;25.30;22.97;;;21.70;43.90;;;;;;5020507;28;20260;-79